createdAt,value
2019-03-16T00:02:15.881Z,0.57
2019-03-16T00:04:44.664Z,0.60
2019-03-16T00:07:13.408Z,0.90
2019-03-16T00:09:42.050Z,0.70
2019-03-16T00:12:10.826Z,0.70
2019-03-16T00:14:39.481Z,0.73
2019-03-16T00:17:09.512Z,0.80
2019-03-16T00:19:38.256Z,0.87
2019-03-16T00:22:07.084Z,0.73
2019-03-16T00:24:35.804Z,0.80
2019-03-16T00:27:04.779Z,0.70
2019-03-16T00:29:33.495Z,0.83
2019-03-16T00:32:12.978Z,0.67
2019-03-16T00:34:32.468Z,0.70
2019-03-16T00:37:01.142Z,0.80
2019-03-16T00:39:29.876Z,0.63
2019-03-16T00:41:58.464Z,0.60
2019-03-16T00:44:27.228Z,0.67
2019-03-16T00:46:55.936Z,0.70
2019-03-16T00:49:24.668Z,0.60
2019-03-16T00:51:53.401Z,0.80
2019-03-16T00:54:22.174Z,0.70
2019-03-16T00:56:50.841Z,0.70
2019-03-16T00:59:19.539Z,0.70
2019-03-16T01:01:48.259Z,0.70
2019-03-16T01:04:17.249Z,0.80
2019-03-16T01:06:45.952Z,0.80
2019-03-16T01:09:14.715Z,0.70
2019-03-16T01:11:43.278Z,0.70
2019-03-16T01:14:12.177Z,0.80
2019-03-16T01:16:41.109Z,0.60
2019-03-16T01:19:09.847Z,0.83
2019-03-16T01:21:38.831Z,0.70
2019-03-16T01:24:07.449Z,0.70
2019-03-16T01:26:36.240Z,0.80
2019-03-16T01:29:04.942Z,0.60
2019-03-16T01:31:33.700Z,0.50
2019-03-16T01:34:02.336Z,0.57
2019-03-16T01:36:31.167Z,0.60
2019-03-16T01:39:00.295Z,0.50
2019-03-16T01:41:29.027Z,0.90
2019-03-16T01:43:57.803Z,0.70
2019-03-16T01:46:26.539Z,0.70
2019-03-16T01:48:55.238Z,0.60
2019-03-16T01:51:24.005Z,0.80
2019-03-16T01:53:52.629Z,0.60
2019-03-16T01:56:21.275Z,0.53
2019-03-16T01:58:50.278Z,0.60
2019-03-16T02:01:19.075Z,0.60
2019-03-16T02:03:47.749Z,0.70
2019-03-16T02:06:16.541Z,0.60
2019-03-16T02:08:45.279Z,0.60
2019-03-16T02:11:13.979Z,0.80
2019-03-16T02:13:42.686Z,0.47
2019-03-16T02:16:11.704Z,0.53
2019-03-16T02:18:40.693Z,0.77
2019-03-16T02:21:09.443Z,0.60
2019-03-16T02:23:38.133Z,0.60
2019-03-16T02:26:06.813Z,0.50
2019-03-16T02:28:35.659Z,0.50
2019-03-16T02:31:04.373Z,0.60
2019-03-16T02:33:33.051Z,0.67
2019-03-16T02:36:01.771Z,0.70
2019-03-16T02:38:30.540Z,0.60
2019-03-16T02:40:59.217Z,0.60
2019-03-16T02:43:27.958Z,0.50
2019-03-16T02:45:56.688Z,0.50
2019-03-16T02:48:25.318Z,0.70
2019-03-16T02:50:54.092Z,0.40
2019-03-16T02:53:22.924Z,0.70
2019-03-16T02:55:51.651Z,0.57
2019-03-16T02:58:20.320Z,0.40
2019-03-16T03:00:49.133Z,0.70
2019-03-16T03:03:29.401Z,0.70
2019-03-16T03:05:48.369Z,0.70
2019-03-16T03:08:17.066Z,0.67
2019-03-16T03:10:48.635Z,0.60
2019-03-16T03:13:17.352Z,0.43
2019-03-16T03:15:46.214Z,0.50
2019-03-16T03:18:14.845Z,0.60
2019-03-16T03:20:43.641Z,0.60
2019-03-16T03:23:12.417Z,0.53
2019-03-16T03:25:41.415Z,0.60
2019-03-16T03:28:10.411Z,0.50
2019-03-16T03:30:39.175Z,0.70
2019-03-16T03:33:08.072Z,0.70
2019-03-16T03:35:36.794Z,0.70
2019-03-16T03:38:05.575Z,0.50
2019-03-16T03:40:34.462Z,0.50
2019-03-16T03:43:03.189Z,0.50
2019-03-16T03:45:32.223Z,0.60
2019-03-16T03:48:00.943Z,0.70
2019-03-16T03:50:29.705Z,0.53
2019-03-16T03:52:58.403Z,0.50
2019-03-16T03:55:27.247Z,0.70
2019-03-16T03:57:56.455Z,0.60
2019-03-16T04:00:25.582Z,0.40
2019-03-16T04:02:54.292Z,0.50
2019-03-16T04:05:22.946Z,0.70
2019-03-16T04:07:51.619Z,0.60
2019-03-16T04:10:20.410Z,0.60
2019-03-16T04:12:49.027Z,0.60
2019-03-16T04:15:17.958Z,0.60
2019-03-16T04:17:46.700Z,0.50
2019-03-16T04:20:15.595Z,0.40
2019-03-16T04:22:44.490Z,0.60
2019-03-16T04:25:13.369Z,0.60
2019-03-16T04:27:42.142Z,0.73
2019-03-16T04:30:11.184Z,0.77
2019-03-16T04:32:39.829Z,0.50
2019-03-16T04:35:08.635Z,0.50
2019-03-16T04:37:37.382Z,0.70
2019-03-16T04:40:06.302Z,0.70
2019-03-16T04:42:34.997Z,0.63
2019-03-16T04:45:03.968Z,0.73
2019-03-16T04:47:32.894Z,0.60
2019-03-16T04:50:01.551Z,0.53
2019-03-16T04:52:30.383Z,0.70
2019-03-16T04:54:59.404Z,0.60
2019-03-16T04:57:28.057Z,0.70
2019-03-16T04:59:56.877Z,0.70
2019-03-16T05:02:25.650Z,0.70
2019-03-16T05:04:54.462Z,0.60
2019-03-16T05:07:23.174Z,0.50
2019-03-16T05:09:51.898Z,0.73
2019-03-16T05:12:20.625Z,0.57
2019-03-16T05:14:49.424Z,0.60
2019-03-16T05:17:18.107Z,0.60
2019-03-16T05:19:46.776Z,0.50
2019-03-16T05:22:15.497Z,0.60
2019-03-16T05:24:44.324Z,0.60
2019-03-16T05:27:13.148Z,0.50
2019-03-16T05:29:41.798Z,0.70
2019-03-16T05:32:10.436Z,0.77
2019-03-16T05:34:39.280Z,0.60
2019-03-16T05:37:07.960Z,0.70
2019-03-16T05:39:36.794Z,0.70
2019-03-16T05:42:05.763Z,0.60
2019-03-16T05:44:34.519Z,0.60
2019-03-16T05:47:03.371Z,0.60
2019-03-16T05:49:32.119Z,0.60
2019-03-16T05:52:00.787Z,0.50
2019-03-16T05:54:29.473Z,0.70
2019-03-16T05:56:58.180Z,0.50
2019-03-16T05:59:26.841Z,0.70
2019-03-16T06:01:55.739Z,0.50
2019-03-16T06:04:24.473Z,0.70
2019-03-16T06:06:53.315Z,0.80
2019-03-16T06:09:21.992Z,0.60
2019-03-16T06:11:50.714Z,0.77
2019-03-16T06:14:19.463Z,0.70
2019-03-16T06:16:48.109Z,0.70
2019-03-16T06:19:16.815Z,0.73
2019-03-16T06:21:45.619Z,0.67
2019-03-16T06:24:14.303Z,0.70
2019-03-16T06:26:43.168Z,0.70
2019-03-16T06:29:11.817Z,0.90
2019-03-16T06:31:40.709Z,0.70
2019-03-16T06:34:09.466Z,0.90
2019-03-16T06:36:38.083Z,0.87
2019-03-16T06:39:07.375Z,0.60
2019-03-16T06:41:36.077Z,0.83
2019-03-16T06:44:04.659Z,0.90
2019-03-16T06:46:33.239Z,0.70
2019-03-16T06:49:02.288Z,0.70
2019-03-16T06:51:31.061Z,0.70
2019-03-16T06:53:59.761Z,0.60
2019-03-16T06:56:28.489Z,0.60
2019-03-16T06:58:58.403Z,0.60
2019-03-16T07:01:27.277Z,0.60
2019-03-16T07:03:55.891Z,0.70
2019-03-16T07:06:24.616Z,0.50
2019-03-16T07:08:53.318Z,0.60
2019-03-16T07:11:21.933Z,0.67
2019-03-16T07:13:50.675Z,0.60
2019-03-16T07:16:19.308Z,0.70
2019-03-16T07:18:58.346Z,0.50
2019-03-16T07:21:18.567Z,0.50
2019-03-16T07:23:47.540Z,0.60
2019-03-16T07:26:16.373Z,0.60
2019-03-16T07:28:45.034Z,0.80
2019-03-16T07:31:13.729Z,0.60
2019-03-16T07:33:42.389Z,0.50
2019-03-16T07:36:11.033Z,0.57
2019-03-16T07:38:39.888Z,0.60
2019-03-16T07:41:08.688Z,0.60
2019-03-16T07:43:37.500Z,0.87
2019-03-16T07:46:06.246Z,0.60
2019-03-16T07:48:34.897Z,0.60
2019-03-16T07:51:03.546Z,0.60
2019-03-16T07:53:32.294Z,0.70
2019-03-16T07:56:00.990Z,0.70
2019-03-16T07:58:29.622Z,0.63
2019-03-16T08:00:58.290Z,0.77
2019-03-16T08:03:27.148Z,0.60
2019-03-16T08:05:55.726Z,0.80
2019-03-16T08:08:24.496Z,0.60
2019-03-16T08:10:53.238Z,0.60
2019-03-16T08:13:22.000Z,0.60
2019-03-16T08:15:50.919Z,0.70
2019-03-16T08:18:19.614Z,0.90
2019-03-16T08:20:48.411Z,0.73
2019-03-16T08:23:17.197Z,0.67
2019-03-16T08:25:46.242Z,0.50
2019-03-16T08:28:14.932Z,0.80
2019-03-16T08:30:43.709Z,0.57
2019-03-16T08:33:12.492Z,0.70
2019-03-16T08:35:41.083Z,0.50
2019-03-16T08:38:09.802Z,0.63
2019-03-16T08:40:38.559Z,0.60
2019-03-16T08:43:07.242Z,0.70
2019-03-16T08:45:35.948Z,0.60
2019-03-16T08:48:04.540Z,0.80
2019-03-16T08:50:33.220Z,0.70
2019-03-16T08:53:02.010Z,0.70
2019-03-16T08:55:30.686Z,0.70
2019-03-16T08:58:06.002Z,0.63
2019-03-16T09:00:29.720Z,0.77
2019-03-16T09:02:58.499Z,0.73
2019-03-16T09:05:27.252Z,0.93
2019-03-16T09:07:56.000Z,0.80
2019-03-16T09:10:24.642Z,0.50
2019-03-16T09:12:55.226Z,0.80
2019-03-16T09:15:23.806Z,0.70
2019-03-16T09:17:52.498Z,0.70
2019-03-16T09:20:21.141Z,0.77
2019-03-16T09:22:49.863Z,0.80
2019-03-16T09:25:18.614Z,0.80
2019-03-16T09:27:47.232Z,0.70
2019-03-16T09:30:16.285Z,1.10
2019-03-16T09:32:45.059Z,0.60
2019-03-16T09:35:13.835Z,0.70
2019-03-16T09:37:42.570Z,0.80
2019-03-16T09:40:11.148Z,0.67
2019-03-16T09:42:40.324Z,0.93
2019-03-16T09:45:09.835Z,0.70
2019-03-16T09:47:38.499Z,0.80
2019-03-16T09:50:07.641Z,0.60
2019-03-16T09:52:36.532Z,0.70
2019-03-16T09:55:05.364Z,0.83
2019-03-16T09:57:34.359Z,0.60
2019-03-16T10:00:03.075Z,0.80
2019-03-16T10:02:32.167Z,0.90
2019-03-16T10:05:00.757Z,0.80
2019-03-16T10:07:29.575Z,0.70
2019-03-16T10:09:58.399Z,0.80
2019-03-16T10:12:27.077Z,0.90
2019-03-16T10:14:55.793Z,0.80
2019-03-16T10:17:24.593Z,0.77
2019-03-16T10:19:53.346Z,1.00
2019-03-16T10:22:22.082Z,0.70
2019-03-16T10:24:50.713Z,0.90
2019-03-16T10:27:19.625Z,0.97
2019-03-16T10:29:48.301Z,0.70
2019-03-16T10:32:16.977Z,0.90
2019-03-16T10:34:45.651Z,0.80
2019-03-16T10:37:14.276Z,1.00
2019-03-16T10:39:43.028Z,0.57
2019-03-16T10:42:11.613Z,0.70
2019-03-16T10:44:40.281Z,0.70
2019-03-16T10:47:08.853Z,0.70
2019-03-16T10:49:37.671Z,0.90
2019-03-16T10:52:06.415Z,0.63
2019-03-16T10:54:35.145Z,0.77
2019-03-16T10:57:04.477Z,0.70
2019-03-16T10:59:33.518Z,0.80
2019-03-16T11:02:02.119Z,0.60
2019-03-16T11:04:31.057Z,0.70
2019-03-16T11:06:59.809Z,0.83
2019-03-16T11:09:28.434Z,0.60
2019-03-16T11:11:57.126Z,0.70
2019-03-16T11:14:25.848Z,0.97
2019-03-16T11:16:54.706Z,0.70
2019-03-16T11:19:23.487Z,0.70
2019-03-16T11:21:52.315Z,0.67
2019-03-16T11:24:21.017Z,0.60
2019-03-16T11:26:49.703Z,0.80
2019-03-16T11:29:18.393Z,1.00
2019-03-16T11:31:47.059Z,0.80
2019-03-16T11:34:15.878Z,1.00
2019-03-16T11:36:44.701Z,0.90
2019-03-16T11:39:13.447Z,0.80
2019-03-16T11:41:42.148Z,0.90
2019-03-16T11:44:10.899Z,0.90
2019-03-16T11:46:39.535Z,0.90
2019-03-16T11:49:08.217Z,1.00
2019-03-16T11:51:36.964Z,0.80
2019-03-16T11:54:05.581Z,0.97
2019-03-16T11:56:34.326Z,0.80
2019-03-16T11:59:03.049Z,0.80
2019-03-16T12:01:31.909Z,1.07
2019-03-16T12:04:00.527Z,0.93
2019-03-16T12:06:29.213Z,0.87
2019-03-16T12:08:58.093Z,0.83
2019-03-16T12:11:26.679Z,0.80
2019-03-16T12:13:55.494Z,0.70
2019-03-16T12:16:24.244Z,0.73
2019-03-16T12:18:53.245Z,0.73
2019-03-16T12:21:22.403Z,0.70
2019-03-16T12:23:51.333Z,0.90
2019-03-16T12:26:20.312Z,0.80
2019-03-16T12:28:49.240Z,0.80
2019-03-16T12:31:17.920Z,0.80
2019-03-16T12:33:46.654Z,0.93
2019-03-16T12:36:15.355Z,0.97
2019-03-16T12:38:44.035Z,0.77
2019-03-16T12:41:12.929Z,1.00
2019-03-16T12:43:41.592Z,0.77
2019-03-16T12:46:10.220Z,1.00
2019-03-16T12:48:38.969Z,0.70
2019-03-16T12:51:07.631Z,0.90
2019-03-16T12:53:36.318Z,0.97
2019-03-16T12:56:05.336Z,0.70
2019-03-16T12:58:34.504Z,0.97
2019-03-16T13:01:03.172Z,0.80
2019-03-16T13:03:31.846Z,0.83
2019-03-16T13:06:00.552Z,0.60
2019-03-16T13:08:29.218Z,0.80
2019-03-16T13:10:57.950Z,0.80
2019-03-16T13:13:26.604Z,0.90
2019-03-16T13:15:55.286Z,1.00
2019-03-16T13:18:23.975Z,0.87
2019-03-16T13:20:52.860Z,0.90
2019-03-16T13:23:21.543Z,0.73
2019-03-16T13:25:50.184Z,0.70
2019-03-16T13:28:18.892Z,0.70
2019-03-16T13:30:47.554Z,0.73
2019-03-16T13:33:16.336Z,0.60
2019-03-16T13:35:45.036Z,0.73
2019-03-16T13:38:13.644Z,0.60
2019-03-16T13:40:42.401Z,0.90
2019-03-16T13:43:11.302Z,0.60
2019-03-16T13:45:39.916Z,0.70
2019-03-16T13:48:08.600Z,0.60
2019-03-16T13:50:37.296Z,0.60
2019-03-16T13:53:06.284Z,0.60
2019-03-16T13:55:35.051Z,0.40
2019-03-16T13:58:03.841Z,0.50
2019-03-16T14:00:32.588Z,0.63
2019-03-16T14:03:01.816Z,0.67
2019-03-16T14:05:30.442Z,0.60
2019-03-16T14:07:59.266Z,0.50
2019-03-16T14:10:28.462Z,0.57
2019-03-16T14:12:57.195Z,0.50
2019-03-16T14:15:26.043Z,0.60
2019-03-16T14:17:57.771Z,0.60
2019-03-16T14:20:25.371Z,0.67
2019-03-16T14:22:54.649Z,1.23
2019-03-16T14:25:23.440Z,1.10
2019-03-16T14:27:52.161Z,0.60
2019-03-16T14:30:39.425Z,0.60
2019-03-16T14:32:51.136Z,0.63
2019-03-16T14:35:19.771Z,0.60
2019-03-16T14:37:48.459Z,0.60
2019-03-16T14:40:17.232Z,0.60
2019-03-16T14:42:46.107Z,0.63
2019-03-16T14:45:15.123Z,0.70
2019-03-16T14:47:44.075Z,0.70
2019-03-16T14:50:16.266Z,0.60
2019-03-16T14:52:44.707Z,0.70
2019-03-16T14:55:13.567Z,0.70
2019-03-16T14:57:42.319Z,0.73
2019-03-16T15:00:12.139Z,0.60
2019-03-16T15:02:41.179Z,0.70
2019-03-16T15:05:10.208Z,0.53
2019-03-16T15:07:38.972Z,0.70
2019-03-16T15:10:07.863Z,0.60
2019-03-16T15:12:36.674Z,0.83
2019-03-16T15:15:05.943Z,0.63
2019-03-16T15:17:53.699Z,0.60
2019-03-16T15:20:22.578Z,0.60
2019-03-16T15:22:53.545Z,0.70
2019-03-16T15:25:21.789Z,0.60
2019-03-16T15:27:50.431Z,0.67
2019-03-16T15:30:19.333Z,0.70
2019-03-16T15:32:47.999Z,0.73
2019-03-16T15:35:17.044Z,0.70
2019-03-16T15:37:45.861Z,0.90
2019-03-16T15:40:14.907Z,0.73
2019-03-16T15:42:43.608Z,0.70
2019-03-16T15:45:13.356Z,0.80
2019-03-16T15:47:42.221Z,0.70
2019-03-16T15:50:11.003Z,0.80
2019-03-16T15:52:39.755Z,0.70
2019-03-16T15:55:08.683Z,0.60
2019-03-16T15:57:37.531Z,0.70
2019-03-16T16:00:06.867Z,0.80
2019-03-16T16:02:35.938Z,0.67
2019-03-16T16:05:04.969Z,0.67
2019-03-16T16:07:35.342Z,0.80
2019-03-16T16:10:05.371Z,0.87
2019-03-16T16:12:34.402Z,0.60
2019-03-16T16:15:03.194Z,0.70
2019-03-16T16:17:31.933Z,0.80
2019-03-16T16:20:00.812Z,0.80
2019-03-16T16:22:29.719Z,0.60
2019-03-16T16:24:58.598Z,0.60
2019-03-16T16:27:27.470Z,0.80
2019-03-16T16:29:56.418Z,0.60
2019-03-16T16:32:25.062Z,0.63
2019-03-16T16:34:54.158Z,0.60
2019-03-16T16:37:22.909Z,0.90
2019-03-16T16:39:51.781Z,0.67
2019-03-16T16:42:20.738Z,0.77
2019-03-16T16:44:49.539Z,0.60
2019-03-16T16:47:18.238Z,0.57
2019-03-16T16:49:47.240Z,0.63
2019-03-16T16:52:16.168Z,0.80
2019-03-16T16:54:45.121Z,0.73
2019-03-16T16:57:13.741Z,0.70
2019-03-16T16:59:42.509Z,0.70
2019-03-16T17:02:11.166Z,0.80
2019-03-16T17:04:39.978Z,0.80
2019-03-16T17:07:08.872Z,0.57
2019-03-16T17:09:37.465Z,0.80
2019-03-16T17:12:06.478Z,0.80
2019-03-16T17:14:35.264Z,0.80
2019-03-16T17:17:04.298Z,0.70
2019-03-16T17:19:33.396Z,0.80
2019-03-16T17:22:02.054Z,0.67
2019-03-16T17:24:30.780Z,0.80
2019-03-16T17:26:59.456Z,0.80
2019-03-16T17:29:28.118Z,1.00
2019-03-16T17:31:56.834Z,0.77
2019-03-16T17:34:25.764Z,0.70
2019-03-16T17:36:54.659Z,1.00
2019-03-16T17:39:23.406Z,0.73
2019-03-16T17:41:52.543Z,0.80
2019-03-16T17:44:21.498Z,0.90
2019-03-16T17:46:50.108Z,0.97
2019-03-16T17:49:19.074Z,0.90
2019-03-16T17:51:49.550Z,0.90
2019-03-16T17:54:18.596Z,0.80
2019-03-16T17:56:47.292Z,1.00
2019-03-16T17:59:16.044Z,1.03
2019-03-16T18:01:54.178Z,0.90
2019-03-16T18:04:15.296Z,1.03
2019-03-16T18:06:44.468Z,1.00
2019-03-16T18:09:13.150Z,0.90
2019-03-16T18:11:42.106Z,1.13
2019-03-16T18:14:10.807Z,1.30
2019-03-16T18:16:39.519Z,1.00
2019-03-16T18:19:08.128Z,1.60
2019-03-16T18:21:36.964Z,1.50
2019-03-16T18:24:05.672Z,1.27
2019-03-16T18:26:34.530Z,1.00
2019-03-16T18:29:03.517Z,1.30
2019-03-16T18:31:32.388Z,1.83
2019-03-16T18:34:01.139Z,1.90
2019-03-16T18:39:05.416Z,1.60
2019-03-16T18:41:34.116Z,1.53
2019-03-16T18:44:03.002Z,1.30
2019-03-16T18:46:31.656Z,1.20
2019-03-16T18:49:00.363Z,1.40
2019-03-16T18:51:29.023Z,1.30
2019-03-16T18:53:57.705Z,1.77
2019-03-16T18:56:26.477Z,2.10
2019-03-16T18:58:55.175Z,1.63
2019-03-16T19:01:23.823Z,1.93
2019-03-16T19:03:52.679Z,2.20
2019-03-16T19:06:21.388Z,2.50
2019-03-16T19:08:50.113Z,2.40
2019-03-16T19:11:18.766Z,2.47
2019-03-16T19:13:49.163Z,2.70
2019-03-16T19:16:17.901Z,3.50
2019-03-16T19:18:46.503Z,3.57
2019-03-16T19:21:15.308Z,3.80
2019-03-16T19:23:43.947Z,3.60
2019-03-16T19:26:12.731Z,3.27
2019-03-16T19:28:41.429Z,3.47
2019-03-16T19:31:10.213Z,3.33
2019-03-16T19:33:38.775Z,3.30
2019-03-16T19:36:07.669Z,3.93
2019-03-16T19:38:36.387Z,2.93
2019-03-16T19:41:05.271Z,3.27
2019-03-16T19:43:33.981Z,3.67
2019-03-16T19:46:02.747Z,3.60
2019-03-16T19:48:31.420Z,5.40
2019-03-16T19:51:00.229Z,13.77
2019-03-16T19:53:28.909Z,10.20
2019-03-16T19:55:57.801Z,11.30
2019-03-16T19:58:26.621Z,12.10
2019-03-16T20:00:55.383Z,10.33
2019-03-16T20:03:24.157Z,6.33
2019-03-16T20:05:52.937Z,3.80
2019-03-16T20:08:21.957Z,4.40
2019-03-16T20:10:50.819Z,3.50
2019-03-16T20:13:19.630Z,3.30
2019-03-16T20:15:50.276Z,3.37
2019-03-16T20:18:19.036Z,3.37
2019-03-16T20:20:47.865Z,3.70
2019-03-16T20:23:16.641Z,7.20
2019-03-16T20:25:45.215Z,17.50
2019-03-16T20:28:13.977Z,12.23
2019-03-16T20:30:42.671Z,9.77
2019-03-16T20:33:11.342Z,5.87
2019-03-16T20:35:40.271Z,5.30
2019-03-16T20:38:08.918Z,4.70
2019-03-16T20:40:37.547Z,5.93
2019-03-16T20:43:06.295Z,4.70
2019-03-16T20:45:35.332Z,4.70
2019-03-16T20:48:04.447Z,5.30
2019-03-16T20:50:33.134Z,5.10
2019-03-16T20:53:01.886Z,4.90
2019-03-16T20:55:30.474Z,4.50
2019-03-16T20:57:59.320Z,4.50
2019-03-16T21:00:28.041Z,3.50
2019-03-16T21:02:56.795Z,3.57
2019-03-16T21:05:25.485Z,4.10
2019-03-16T21:07:54.335Z,4.17
2019-03-16T21:10:23.026Z,3.60
2019-03-16T21:12:51.684Z,3.80
2019-03-16T21:15:20.398Z,3.90
2019-03-16T21:17:51.267Z,4.57
2019-03-16T21:20:20.254Z,4.80
2019-03-16T21:22:49.428Z,4.60
2019-03-16T21:25:18.048Z,4.93
2019-03-16T21:27:48.503Z,3.90
2019-03-16T21:30:17.412Z,4.40
2019-03-16T21:32:46.332Z,4.40
2019-03-16T21:35:14.981Z,4.20
2019-03-16T21:37:43.728Z,4.13
2019-03-16T21:40:12.376Z,3.80
2019-03-16T21:42:41.127Z,6.10
2019-03-16T21:45:09.884Z,5.77
2019-03-16T21:47:38.924Z,5.23
2019-03-16T21:50:08.094Z,4.90
2019-03-16T21:52:36.868Z,4.03
2019-03-16T21:55:07.773Z,4.27
2019-03-16T21:57:36.552Z,3.33
2019-03-16T22:00:06.082Z,3.60
2019-03-16T22:02:34.749Z,4.20
2019-03-16T22:05:03.760Z,4.13
2019-03-16T22:07:32.456Z,3.50
2019-03-16T22:10:01.194Z,3.30
2019-03-16T22:12:30.002Z,4.00
2019-03-16T22:14:58.867Z,3.73
2019-03-16T22:17:27.652Z,3.23
2019-03-16T22:19:56.283Z,4.00
2019-03-16T22:22:25.184Z,3.70
2019-03-16T22:24:53.765Z,3.70
2019-03-16T22:27:22.477Z,3.53
2019-03-16T22:29:52.869Z,4.10
2019-03-16T22:32:21.818Z,3.50
2019-03-16T22:34:50.396Z,3.57
2019-03-16T22:37:19.048Z,3.87
2019-03-16T22:39:49.533Z,3.07
2019-03-16T22:42:18.342Z,3.60
2019-03-16T22:44:47.040Z,3.57
2019-03-16T22:47:15.874Z,3.30
2019-03-16T22:49:44.454Z,3.53
2019-03-16T22:52:13.292Z,3.60
2019-03-16T22:54:42.012Z,3.07
2019-03-16T22:57:10.713Z,3.07
2019-03-16T22:59:39.362Z,3.47
2019-03-16T23:02:08.558Z,3.37
2019-03-16T23:04:37.451Z,3.23
2019-03-16T23:07:06.190Z,4.00
2019-03-16T23:09:34.977Z,3.70
2019-03-16T23:12:03.725Z,3.90
2019-03-16T23:14:32.485Z,3.60
2019-03-16T23:17:01.210Z,3.70
2019-03-16T23:19:30.151Z,3.53
2019-03-16T23:21:58.856Z,3.37
2019-03-16T23:24:27.775Z,3.20
2019-03-16T23:26:56.477Z,3.23
2019-03-16T23:29:25.218Z,3.60
2019-03-16T23:31:53.883Z,3.10
2019-03-16T23:34:22.647Z,3.40
2019-03-16T23:36:51.369Z,3.20
2019-03-16T23:39:20.081Z,3.00
2019-03-16T23:41:48.685Z,2.70
2019-03-16T23:44:17.340Z,2.73
2019-03-16T23:46:45.971Z,2.83
2019-03-16T23:49:14.705Z,2.50
2019-03-16T23:51:43.345Z,2.73
2019-03-16T23:54:12.097Z,2.93
2019-03-16T23:56:40.747Z,2.53
2019-03-16T23:59:09.381Z,2.63
